الصفحة الرئيسية
METAR-TAF:

METAR-TAF

مطار :

مطار تشوبو سنتراير الدولي

ناغويا, اليابان

دائرة عرض: 34-51-30N, خط طول: 136-48-19E, ارتفاع: 5 متر

مراقبة الطقس الحالي

تاريخ ووقت الإصدار 35 دقيقة قبل الساعة 01:30UTC
ريح 4 عقدة من الشمال الغربي
درجة الحرارة 28°درجة مئوية
الرطوبة 70%
ضغط 1009 hPa
الرؤية 10 كم أو أكثر
غيوم قليلة على ارتفاع 3000 قدم
غيوم مفككة على ارتفاع 13000 قدم

METAR: RJGG 250130Z 32004KT 9999 FEW030 BKN130 28/22 Q1009 NOSIG

زمن: 11:05 (02:05 UTC)

توقعات

تاريخ ووقت الإصدار 1ساعة و 14 دقيقة قبل الساعة 00:51UTC
التوقعات صالحة من25 الساعة 00 UTC إلى 26 الساعة 06 UTC
ريح 6 عقدة من الغرب/الشمال الغربي
الرؤية 10 كم أو أكثر
غيوم قليلة على ارتفاع 2000 قدم
غيوم متفرقة على ارتفاع 4000 قدم
أصبح
من 26 الساعة 03 UTC إلى 26 الساعة 06 UTC
ريح 5 عقدة من الغرب/الجنوب الغربي

TAF: RJGG 250051Z 2500/2606 30006KT 9999 FEW020 SCT040 BECMG 2603/2606 24005KT

أرصاد الطقس والتوقعات من أكثر من 4000 مطار (تقارير الطقس للمطار METAR والتنبؤ بالطقس بالمطارTAF).

المحطات المتاحة هي النقط الصفراء والحمراء على الخريطة.

حرك المؤشر فوق النقطة لمعرفة اسم المحطة.

ثم انقر لمعرفة أرصاد وتوقعات الطقس.

لتغيير الخارطة: اضغط على الأزرار الخضراء مع رمز الصليب الأسود للتكبير. على الزر الأخضر مع شرطة للتصغير، أو على الأسهم الخضراء للخرائط المجاورة.


METAR-TAF: